Time;durP1;ratioP1;P1;durP2;ratioP2;P2;SDS_P1;SDS_P2;PMS_P1;PMS_P2;Temp;Humidity;BMP_temperature;BMP_pressure;BME280_temperature;BME280_humidity;BME280_pressure;Samples;Min_cycle;Max_cycle;Signal;HPM_P1;HPM_P2
2022/11/19 00:00:05;;;;;;;35.15;15.93;;;;;;;;;;1028303;28;20077;-76
2022/11/19 00:00:36;;;;;;;29.90;14.25;;;;;;;;;;1027908;28;20049;-76
2022/11/19 00:01:11;;;;;;;25.35;15.35;;;;;;;;;;1026287;28;20476;-76
2022/11/19 00:01:42;;;;;;;30.85;13.85;;;;;;;;;;1024481;28;20082;-75
2022/11/19 00:02:14;;;;;;;33.08;14.10;;;;;;;;;;1026904;28;20026;-76
2022/11/19 00:02:45;;;;;;;25.65;14.00;;;;;;;;;;1027653;28;20054;-76
2022/11/19 00:03:17;;;;;;;33.97;16.33;;;;;;;;;;1029696;28;20053;-76
2022/11/19 00:03:49;;;;;;;28.90;15.32;;;;;;;;;;1026547;28;20019;-75
2022/11/19 00:04:21;;;;;;;42.28;15.98;;;;;;;;;;1030561;28;20080;-76
2022/11/19 00:04:53;;;;;;;35.55;12.15;;;;;;;;;;1027841;28;20031;-76
2022/11/19 00:05:24;;;;;;;27.77;14.13;;;;;;;;;;1024030;29;20459;-75
2022/11/19 00:05:54;;;;;;;28.02;13.57;;;;;;;;;;1023863;29;20314;-76
2022/11/19 00:06:26;;;;;;;26.90;13.50;;;;;;;;;;1020222;29;20023;-74
2022/11/19 00:06:57;;;;;;;30.23;13.50;;;;;;;;;;1023951;28;20034;-75
2022/11/19 00:07:30;;;;;;;31.65;13.95;;;;;;;;;;1024040;29;20147;-75
2022/11/19 00:08:02;;;;;;;32.10;14.40;;;;;;;;;;1022523;28;20058;-75
2022/11/19 00:08:34;;;;;;;30.67;14.35;;;;;;;;;;1026813;28;20086;-75
2022/11/19 00:09:09;;;;;;;27.40;15.57;;;;;;;;;;1027453;28;20062;-76
2022/11/19 00:09:40;;;;;;;36.53;14.77;;;;;;;;;;1030008;28;20053;-76
2022/11/19 00:10:11;;;;;;;25.92;12.18;;;;;;;;;;1030684;28;20022;-76
2022/11/19 00:10:43;;;;;;;35.95;13.77;;;;;;;;;;1029808;28;20026;-75
2022/11/19 00:11:15;;;;;;;30.02;13.43;;;;;;;;;;1026652;28;20030;-75
2022/11/19 00:12:53;;;;;;;31.13;15.43;;;;;;;;;;1030758;28;20554;-75
2022/11/19 00:13:23;;;;;;;26.92;12.73;;;;;;;;;;1030371;28;20022;-74
2022/11/19 00:13:55;;;;;;;32.88;16.50;;;;;;;;;;1031777;28;20090;-76
2022/11/19 00:14:26;;;;;;;30.48;14.23;;;;;;;;;;1031903;28;20533;-75
2022/11/19 00:14:57;;;;;;;29.80;14.02;;;;;;;;;;1031877;28;20069;-75
2022/11/19 00:15:27;;;;;;;25.10;14.00;;;;;;;;;;1029955;28;20090;-76
2022/11/19 00:16:05;;;;;;;35.53;14.00;;;;;;;;;;1025871;28;20031;-76
2022/11/19 00:16:36;;;;;;;27.38;15.18;;;;;;;;;;1026897;28;20030;-76
2022/11/19 00:17:07;;;;;;;24.58;13.50;;;;;;;;;;1024884;28;20022;-75
2022/11/19 00:17:37;;;;;;;20.70;14.40;;;;;;;;;;1027510;28;20015;-75
2022/11/19 00:18:08;;;;;;;35.35;13.77;;;;;;;;;;1027445;28;20019;-75
2022/11/19 00:18:40;;;;;;;32.05;15.50;;;;;;;;;;1025850;28;20102;-75
2022/11/19 00:19:11;;;;;;;26.73;14.15;;;;;;;;;;1028687;28;20573;-76
2022/11/19 00:19:41;;;;;;;28.13;14.32;;;;;;;;;;1028162;28;20085;-76
2022/11/19 00:20:13;;;;;;;31.17;15.38;;;;;;;;;;1028183;28;20027;-75
2022/11/19 00:20:44;;;;;;;39.38;15.63;;;;;;;;;;1031674;28;20022;-75
2022/11/19 00:21:14;;;;;;;31.10;15.10;;;;;;;;;;1028038;28;20031;-76
2022/11/19 00:21:45;;;;;;;30.05;16.13;;;;;;;;;;1027734;28;20027;-76
2022/11/19 00:22:16;;;;;;;29.23;15.18;;;;;;;;;;1029918;28;20370;-76
2022/11/19 00:22:51;;;;;;;32.20;15.43;;;;;;;;;;1025118;28;20023;-75
2022/11/19 00:23:22;;;;;;;29.00;13.70;;;;;;;;;;1026132;28;20023;-75
2022/11/19 00:23:53;;;;;;;35.25;16.83;;;;;;;;;;1028513;28;20023;-76
2022/11/19 00:24:26;;;;;;;33.40;16.85;;;;;;;;;;1032080;28;20026;-75
2022/11/19 00:24:57;;;;;;;29.58;16.50;;;;;;;;;;1031616;28;20030;-75
2022/11/19 00:25:29;;;;;;;32.95;16.30;;;;;;;;;;1031812;28;20125;-75
2022/11/19 00:26:18;;;;;;;33.88;16.42;;;;;;;;;;1026874;28;20133;-75
2022/11/19 00:26:48;;;;;;;29.38;16.70;;;;;;;;;;1027093;28;21597;-75
2022/11/19 00:27:19;;;;;;;31.83;16.15;;;;;;;;;;1028448;28;20447;-75
2022/11/19 00:27:51;;;;;;;34.75;15.02;;;;;;;;;;1028886;28;20029;-75
2022/11/19 00:28:23;;;;;;;36.70;14.82;;;;;;;;;;1029832;28;20084;-75
2022/11/19 00:28:54;;;;;;;34.17;14.80;;;;;;;;;;1029755;28;20022;-75
2022/11/19 00:29:25;;;;;;;30.48;17.10;;;;;;;;;;1031976;28;20502;-75
2022/11/19 00:29:55;;;;;;;38.92;16.50;;;;;;;;;;1029869;28;20029;-76
2022/11/19 00:30:27;;;;;;;32.35;17.85;;;;;;;;;;1028884;28;20038;-75
2022/11/19 00:31:06;;;;;;;25.45;13.98;;;;;;;;;;1027490;28;20029;-75
2022/11/19 00:31:38;;;;;;;41.35;16.77;;;;;;;;;;1025559;28;20353;-76
2022/11/19 00:32:09;;;;;;;32.53;14.93;;;;;;;;;;1027284;28;20023;-76
2022/11/19 00:32:39;;;;;;;45.72;17.60;;;;;;;;;;1029327;28;20057;-76
2022/11/19 00:33:10;;;;;;;34.35;15.95;;;;;;;;;;1029953;28;20049;-75
2022/11/19 00:33:42;;;;;;;37.35;15.00;;;;;;;;;;1029651;28;20026;-75
2022/11/19 00:34:13;;;;;;;32.40;16.13;;;;;;;;;;1028229;28;20034;-75
2022/11/19 00:34:44;;;;;;;34.33;16.90;;;;;;;;;;1024819;28;20027;-75
2022/11/19 00:35:14;;;;;;;33.63;14.85;;;;;;;;;;1025301;28;20034;-75
2022/11/19 00:35:45;;;;;;;37.25;17.98;;;;;;;;;;1029896;28;20660;-75
2022/11/19 00:36:16;;;;;;;37.55;16.77;;;;;;;;;;1027941;28;20029;-75
2022/11/19 00:36:47;;;;;;;38.28;17.70;;;;;;;;;;1031750;28;20034;-75
2022/11/19 00:37:18;;;;;;;27.23;14.85;;;;;;;;;;1032183;28;20479;-75
2022/11/19 00:37:48;;;;;;;35.22;16.00;;;;;;;;;;1031693;28;20084;-75
2022/11/19 00:38:20;;;;;;;32.97;15.68;;;;;;;;;;1029842;28;20030;-75
2022/11/19 00:38:50;;;;;;;30.83;15.95;;;;;;;;;;1025650;28;20029;-75
2022/11/19 00:39:21;;;;;;;33.30;15.25;;;;;;;;;;1027904;28;20033;-75
2022/11/19 00:39:53;;;;;;;37.72;16.70;;;;;;;;;;1026735;28;20414;-75
2022/11/19 00:40:23;;;;;;;33.53;16.55;;;;;;;;;;1027744;28;20103;-75
2022/11/19 00:40:54;;;;;;;39.47;17.33;;;;;;;;;;1027525;28;20150;-75
2022/11/19 00:41:25;;;;;;;37.42;16.40;;;;;;;;;;1028580;28;20121;-75
2022/11/19 00:41:56;;;;;;;39.53;17.73;;;;;;;;;;1031574;28;20413;-75
2022/11/19 00:42:27;;;;;;;30.17;15.82;;;;;;;;;;1031696;28;20460;-75
2022/11/19 00:43:47;;;;;;;30.67;16.75;;;;;;;;;;1030280;28;20030;-75
2022/11/19 00:44:19;;;;;;;33.15;16.75;;;;;;;;;;1031898;28;20556;-75
2022/11/19 00:44:50;;;;;;;36.63;16.60;;;;;;;;;;1030865;28;20034;-75
2022/11/19 00:45:21;;;;;;;32.95;16.13;;;;;;;;;;1027919;28;20034;-75
2022/11/19 00:45:52;;;;;;;41.58;18.88;;;;;;;;;;1027516;28;20026;-75
2022/11/19 00:46:24;;;;;;;32.33;16.08;;;;;;;;;;1028313;28;20023;-76
2022/11/19 00:46:56;;;;;;;42.53;16.90;;;;;;;;;;1031831;28;20029;-76
2022/11/19 00:47:29;;;;;;;40.80;17.42;;;;;;;;;;1028408;28;20054;-76
2022/11/19 00:48:00;;;;;;;39.05;16.10;;;;;;;;;;1031465;28;20030;-75
2022/11/19 00:48:31;;;;;;;34.70;15.77;;;;;;;;;;1027664;28;20232;-75
2022/11/19 00:49:03;;;;;;;39.40;17.73;;;;;;;;;;1027657;28;20023;-75
2022/11/19 00:49:34;;;;;;;39.92;16.15;;;;;;;;;;1027925;28;20022;-75
2022/11/19 00:50:05;;;;;;;47.78;16.40;;;;;;;;;;1027852;28;20121;-75
2022/11/19 00:50:35;;;;;;;38.47;17.27;;;;;;;;;;1028003;28;20395;-75
2022/11/19 00:51:07;;;;;;;35.50;16.08;;;;;;;;;;1031691;28;20109;-76
2022/11/19 00:51:38;;;;;;;32.03;16.55;;;;;;;;;;1031731;28;20026;-76
2022/11/19 00:52:09;;;;;;;29.85;15.43;;;;;;;;;;1031697;28;20485;-75
2022/11/19 00:52:40;;;;;;;26.10;15.43;;;;;;;;;;1029521;28;20030;-75
2022/11/19 00:53:10;;;;;;;39.88;17.90;;;;;;;;;;1025331;28;20093;-75
2022/11/19 00:53:41;;;;;;;45.80;17.50;;;;;;;;;;1027792;28;20085;-75
2022/11/19 00:54:12;;;;;;;37.70;16.08;;;;;;;;;;1027712;28;20471;-75
2022/11/19 00:54:42;;;;;;;35.38;17.88;;;;;;;;;;1030197;28;20054;-75
2022/11/19 00:55:13;;;;;;;30.23;15.40;;;;;;;;;;1029767;28;20022;-75
2022/11/19 00:55:45;;;;;;;34.60;14.70;;;;;;;;;;1031343;28;20018;-75
2022/11/19 00:56:18;;;;;;;34.28;18.20;;;;;;;;;;1027777;28;20037;-75
2022/11/19 00:56:49;;;;;;;36.85;16.88;;;;;;;;;;1023572;29;20946;-75
2022/11/19 00:57:19;;;;;;;35.28;15.82;;;;;;;;;;1023953;29;20440;-75
2022/11/19 00:57:50;;;;;;;40.17;18.48;;;;;;;;;;1024252;28;20051;-75
2022/11/19 00:58:21;;;;;;;38.72;17.15;;;;;;;;;;1028084;28;20293;-75
2022/11/19 00:58:55;;;;;;;30.83;17.73;;;;;;;;;;1031378;28;20029;-75
2022/11/19 00:59:26;;;;;;;36.38;16.95;;;;;;;;;;1031713;28;20557;-75
2022/11/19 00:59:57;;;;;;;38.60;16.77;;;;;;;;;;1031376;28;20015;-75
2022/11/19 01:00:27;;;;;;;38.85;17.40;;;;;;;;;;1031697;28;20172;-75
2022/11/19 01:00:58;;;;;;;36.88;16.98;;;;;;;;;;1031487;28;20034;-74
2022/11/19 01:01:29;;;;;;;40.33;16.83;;;;;;;;;;1029618;28;20479;-75
2022/11/19 01:02:00;;;;;;;37.08;16.33;;;;;;;;;;1029489;28;20030;-75
2022/11/19 01:02:32;;;;;;;35.75;17.45;;;;;;;;;;1025981;28;20037;-75
2022/11/19 01:03:03;;;;;;;30.75;15.20;;;;;;;;;;1028143;28;20031;-75
2022/11/19 01:03:34;;;;;;;31.23;16.38;;;;;;;;;;1031211;28;20383;-75
2022/11/19 01:04:05;;;;;;;32.22;16.15;;;;;;;;;;1028206;28;20038;-75
2022/11/19 01:04:36;;;;;;;36.00;17.63;;;;;;;;;;1031760;28;20018;-75
2022/11/19 01:05:07;;;;;;;29.40;16.02;;;;;;;;;;1031734;28;20071;-75
2022/11/19 01:05:37;;;;;;;40.13;18.35;;;;;;;;;;1031873;28;20025;-75
2022/11/19 01:06:09;;;;;;;43.25;20.00;;;;;;;;;;1027742;28;20489;-75
2022/11/19 01:06:39;;;;;;;37.55;16.98;;;;;;;;;;1031662;28;20460;-75
2022/11/19 01:07:10;;;;;;;36.42;16.70;;;;;;;;;;1031746;28;20034;-75
2022/11/19 01:07:41;;;;;;;38.53;19.98;;;;;;;;;;1031552;28;20037;-75
2022/11/19 01:08:12;;;;;;;35.00;16.60;;;;;;;;;;1031568;28;20030;-75
2022/11/19 01:08:44;;;;;;;39.70;17.65;;;;;;;;;;1027566;28;20046;-75
2022/11/19 01:09:15;;;;;;;42.10;19.20;;;;;;;;;;1027315;28;20522;-75
2022/11/19 01:09:46;;;;;;;48.05;19.38;;;;;;;;;;1031647;28;20039;-75
2022/11/19 01:10:17;;;;;;;43.40;18.15;;;;;;;;;;1031696;28;20022;-75
2022/11/19 01:10:47;;;;;;;38.97;18.83;;;;;;;;;;1031631;28;20022;-75
2022/11/19 01:11:22;;;;;;;42.90;20.38;;;;;;;;;;1031109;28;20502;-75
2022/11/19 01:11:53;;;;;;;35.25;17.17;;;;;;;;;;1030922;28;20026;-75
2022/11/19 01:12:24;;;;;;;37.83;16.88;;;;;;;;;;1027903;28;20061;-76
2022/11/19 01:13:45;;;;;;;46.15;16.35;;;;;;;;;;1027704;28;20467;-75
2022/11/19 01:14:16;;;;;;;44.20;19.23;;;;;;;;;;1026518;28;20011;-75
2022/11/19 01:14:47;;;;;;;37.95;19.17;;;;;;;;;;1026612;28;20027;-75
2022/11/19 01:15:18;;;;;;;43.72;19.92;;;;;;;;;;1028536;28;20039;-75
2022/11/19 01:15:53;;;;;;;52.25;19.15;;;;;;;;;;1027896;28;20038;-75
2022/11/19 01:16:32;;;;;;;32.90;17.33;;;;;;;;;;1032621;28;20042;-75
2022/11/19 01:17:03;;;;;;;40.25;18.38;;;;;;;;;;1025301;28;20117;-75
2022/11/19 01:17:34;;;;;;;49.08;19.33;;;;;;;;;;1029126;28;20026;-75
2022/11/19 01:18:05;;;;;;;33.90;19.80;;;;;;;;;;1031402;28;20433;-75
2022/11/19 01:18:36;;;;;;;45.42;17.85;;;;;;;;;;1030041;28;20137;-75
2022/11/19 01:19:08;;;;;;;40.92;18.40;;;;;;;;;;1029511;28;20027;-75
2022/11/19 01:19:39;;;;;;;41.55;20.45;;;;;;;;;;1029350;28;20019;-75
2022/11/19 01:20:09;;;;;;;36.03;19.50;;;;;;;;;;1025487;28;20026;-75
2022/11/19 01:20:40;;;;;;;48.00;21.08;;;;;;;;;;1023004;28;20062;-75
2022/11/19 01:21:12;;;;;;;46.13;20.92;;;;;;;;;;1025964;28;20039;-75
2022/11/19 01:21:44;;;;;;;45.97;19.88;;;;;;;;;;1029774;28;20522;-75
2022/11/19 01:22:14;;;;;;;53.80;21.15;;;;;;;;;;1030639;28;20050;-75
2022/11/19 01:22:45;;;;;;;34.65;17.52;;;;;;;;;;1031139;28;20026;-75
2022/11/19 01:23:16;;;;;;;41.67;18.83;;;;;;;;;;1027432;28;20018;-75
2022/11/19 01:23:47;;;;;;;43.15;19.92;;;;;;;;;;1023394;28;20038;-75
2022/11/19 01:24:18;;;;;;;41.42;18.83;;;;;;;;;;1019477;29;20032;-75
2022/11/19 01:24:49;;;;;;;31.30;18.60;;;;;;;;;;1021286;28;20019;-75
2022/11/19 01:25:21;;;;;;;42.92;19.95;;;;;;;;;;1027372;28;20034;-75
2022/11/19 01:25:53;;;;;;;38.90;19.17;;;;;;;;;;1025346;28;20153;-75
2022/11/19 01:26:25;;;;;;;41.40;18.15;;;;;;;;;;1026615;28;20458;-75
2022/11/19 01:26:57;;;;;;;40.05;19.50;;;;;;;;;;1027492;28;20498;-75
2022/11/19 01:27:33;;;;;;;35.03;19.77;;;;;;;;;;1031253;28;20041;-75
2022/11/19 01:28:09;;;;;;;32.15;17.55;;;;;;;;;;1030652;28;20142;-76
2022/11/19 01:28:43;;;;;;;35.08;17.17;;;;;;;;;;1031475;28;20034;-75
2022/11/19 01:29:14;;;;;;;44.58;20.30;;;;;;;;;;1030986;28;20505;-76
2022/11/19 01:29:47;;;;;;;40.63;19.52;;;;;;;;;;1028256;28;20022;-76
2022/11/19 01:30:21;;;;;;;38.42;17.95;;;;;;;;;;1027528;28;20073;-76
2022/11/19 01:30:52;;;;;;;41.78;17.13;;;;;;;;;;1027097;28;20023;-74
2022/11/19 01:31:25;;;;;;;37.60;17.45;;;;;;;;;;1026506;28;20466;-75
2022/11/19 01:31:56;;;;;;;37.90;18.17;;;;;;;;;;1023679;28;20027;-75
2022/11/19 01:32:27;;;;;;;40.80;15.88;;;;;;;;;;1022937;28;20078;-75
2022/11/19 01:33:00;;;;;;;38.85;16.10;;;;;;;;;;1027362;28;20045;-76
2022/11/19 01:33:33;;;;;;;36.00;16.02;;;;;;;;;;1024219;28;20023;-76
2022/11/19 01:34:03;;;;;;;25.33;14.35;;;;;;;;;;1025428;28;20822;-76
2022/11/19 01:34:34;;;;;;;38.38;19.55;;;;;;;;;;1025110;28;20033;-75
2022/11/19 01:35:06;;;;;;;39.58;16.60;;;;;;;;;;1026709;28;20027;-75
2022/11/19 01:35:37;;;;;;;30.95;15.77;;;;;;;;;;1028552;28;20042;-75
2022/11/19 01:36:15;;;;;;;30.10;15.90;;;;;;;;;;1026087;28;20030;-75
2022/11/19 01:36:45;;;;;;;23.70;12.88;;;;;;;;;;1026408;28;20035;-75
2022/11/19 01:37:16;;;;;;;31.45;14.23;;;;;;;;;;1026730;28;20153;-75
2022/11/19 01:37:47;;;;;;;36.88;16.60;;;;;;;;;;1024216;28;20034;-75
2022/11/19 01:38:17;;;;;;;31.80;15.05;;;;;;;;;;1027789;28;20530;-75
2022/11/19 01:38:50;;;;;;;32.45;16.38;;;;;;;;;;1026528;28;20050;-75
2022/11/19 01:39:21;;;;;;;29.92;14.52;;;;;;;;;;1027217;28;20030;-75
2022/11/19 01:39:53;;;;;;;27.92;13.90;;;;;;;;;;1026743;28;20037;-75
2022/11/19 01:40:23;;;;;;;27.10;14.77;;;;;;;;;;1026867;28;20054;-75
2022/11/19 01:40:55;;;;;;;30.58;15.77;;;;;;;;;;1024107;28;20030;-75
2022/11/19 01:41:27;;;;;;;29.92;14.85;;;;;;;;;;1024472;28;20125;-75
2022/11/19 01:41:58;;;;;;;33.40;16.10;;;;;;;;;;1028996;28;20057;-75
2022/11/19 01:43:18;;;;;;;31.08;16.35;;;;;;;;;;1029260;28;20030;-75
2022/11/19 01:43:54;;;;;;;31.30;15.88;;;;;;;;;;1030425;28;20125;-75
2022/11/19 01:44:43;;;;;;;29.92;15.02;;;;;;;;;;1027156;28;20058;-75
2022/11/19 01:45:32;;;;;;;36.63;14.70;;;;;;;;;;1022835;29;20025;-75
2022/11/19 01:46:03;;;;;;;32.25;13.25;;;;;;;;;;1026952;28;20077;-74
2022/11/19 01:46:35;;;;;;;31.13;16.25;;;;;;;;;;1023961;28;20384;-74
2022/11/19 01:47:07;;;;;;;32.45;16.58;;;;;;;;;;1027048;28;20481;-74
2022/11/19 01:47:38;;;;;;;29.70;15.02;;;;;;;;;;1029488;28;20041;-75
2022/11/19 01:48:20;;;;;;;30.73;14.80;;;;;;;;;;1031930;28;20482;-75
2022/11/19 01:49:09;;;;;;;28.48;14.52;;;;;;;;;;1031197;28;20080;-75
2022/11/19 01:49:39;;;;;;;34.65;17.05;;;;;;;;;;1031445;28;20030;-75
2022/11/19 01:50:10;;;;;;;30.92;15.70;;;;;;;;;;1031792;28;20490;-75
2022/11/19 01:50:48;;;;;;;33.72;16.35;;;;;;;;;;1031584;28;20069;-74
2022/11/19 01:51:27;;;;;;;32.00;16.08;;;;;;;;;;1029019;28;20029;-76
2022/11/19 01:52:01;;;;;;;39.60;15.27;;;;;;;;;;1027351;28;20023;-75
2022/11/19 01:52:34;;;;;;;31.23;15.20;;;;;;;;;;1027103;28;20259;-75
2022/11/19 01:53:07;;;;;;;31.25;16.13;;;;;;;;;;1027627;28;20102;-75
2022/11/19 01:53:38;;;;;;;34.67;17.48;;;;;;;;;;1027472;28;20031;-76
2022/11/19 01:54:16;;;;;;;32.63;16.58;;;;;;;;;;1025927;28;20574;-76
2022/11/19 01:54:49;;;;;;;32.50;16.42;;;;;;;;;;1027446;28;20463;-76
2022/11/19 01:55:20;;;;;;;32.35;16.67;;;;;;;;;;1028916;28;20097;-76
2022/11/19 01:55:51;;;;;;;31.15;14.70;;;;;;;;;;1026277;28;20574;-76
2022/11/19 01:56:22;;;;;;;36.88;15.60;;;;;;;;;;1025653;28;20075;-76
2022/11/19 01:56:55;;;;;;;31.00;15.02;;;;;;;;;;1029445;28;20098;-76
2022/11/19 01:57:26;;;;;;;40.88;17.90;;;;;;;;;;1027515;28;20034;-76
2022/11/19 01:57:59;;;;;;;27.98;13.55;;;;;;;;;;1027704;28;20125;-76
2022/11/19 01:58:39;;;;;;;31.88;16.73;;;;;;;;;;1029729;28;20449;-75
2022/11/19 01:59:13;;;;;;;30.95;14.82;;;;;;;;;;1027189;28;20031;-75
2022/11/19 01:59:46;;;;;;;33.90;16.23;;;;;;;;;;1029230;28;20101;-75
2022/11/19 02:00:17;;;;;;;30.85;15.15;;;;;;;;;;1031468;28;20022;-75
2022/11/19 02:00:48;;;;;;;39.47;15.50;;;;;;;;;;1029474;28;20081;-75
2022/11/19 02:01:18;;;;;;;33.45;16.23;;;;;;;;;;1025659;28;20027;-75
2022/11/19 02:01:49;;;;;;;41.83;17.33;;;;;;;;;;1027109;28;20023;-75
2022/11/19 02:02:21;;;;;;;41.70;18.40;;;;;;;;;;1027983;28;20053;-75
2022/11/19 02:02:52;;;;;;;29.85;15.23;;;;;;;;;;1031364;28;20042;-75
2022/11/19 02:03:24;;;;;;;26.52;14.82;;;;;;;;;;1027933;28;20510;-75
2022/11/19 02:03:57;;;;;;;32.33;16.00;;;;;;;;;;1027917;28;20054;-75
2022/11/19 02:04:28;;;;;;;39.60;16.65;;;;;;;;;;1031532;28;20034;-75
2022/11/19 02:04:59;;;;;;;40.30;17.73;;;;;;;;;;1027009;28;20054;-75
2022/11/19 02:05:30;;;;;;;28.50;14.15;;;;;;;;;;1026104;28;20054;-75
2022/11/19 02:06:02;;;;;;;36.58;17.50;;;;;;;;;;1028206;28;20029;-75
2022/11/19 02:06:36;;;;;;;34.97;18.17;;;;;;;;;;1027822;28;20034;-75
2022/11/19 02:07:09;;;;;;;32.22;16.50;;;;;;;;;;1031057;28;20022;-76
2022/11/19 02:07:41;;;;;;;34.30;18.35;;;;;;;;;;1031316;28;20026;-76
2022/11/19 02:08:32;;;;;;;40.03;18.00;;;;;;;;;;1031677;28;20201;-77
2022/11/19 02:09:03;;;;;;;46.92;19.30;;;;;;;;;;1031829;28;20033;-76
2022/11/19 02:09:34;;;;;;;34.58;17.30;;;;;;;;;;1032520;28;20027;-76
2022/11/19 02:10:04;;;;;;;36.20;17.50;;;;;;;;;;1031471;28;20435;-76
2022/11/19 02:10:36;;;;;;;39.88;17.95;;;;;;;;;;1029925;28;20022;-76
2022/11/19 02:11:15;;;;;;;46.63;17.65;;;;;;;;;;1030407;28;20022;-76
2022/11/19 02:11:51;;;;;;;46.25;18.23;;;;;;;;;;1030063;28;20041;-76
2022/11/19 02:12:25;;;;;;;47.38;18.95;;;;;;;;;;1030944;28;20061;-76
2022/11/19 02:13:08;;;;;;;38.90;18.02;;;;;;;;;;1031092;28;20125;-76
2022/11/19 02:13:50;;;;;;;48.33;22.33;;;;;;;;;;1030467;28;20027;-75
2022/11/19 02:14:32;;;;;;;48.78;18.95;;;;;;;;;;1030752;28;20034;-77
2022/11/19 02:15:21;;;;;;;44.08;18.92;;;;;;;;;;1027149;28;20054;-77
2022/11/19 02:16:17;;;;;;;39.58;19.15;;;;;;;;;;1030361;28;20519;-76
2022/11/19 02:16:48;;;;;;;53.40;21.55;;;;;;;;;;1026746;28;20041;-76
2022/11/19 02:17:24;;;;;;;42.05;20.60;;;;;;;;;;1029258;28;20116;-76
2022/11/19 02:17:55;;;;;;;55.67;21.02;;;;;;;;;;1028972;28;20062;-76
2022/11/19 02:18:33;;;;;;;42.67;20.55;;;;;;;;;;1028431;28;20462;-76
2022/11/19 02:19:35;;;;;;;55.55;23.05;;;;;;;;;;1026839;28;20038;-76
2022/11/19 02:20:09;;;;;;;46.88;22.85;;;;;;;;;;1030967;28;20029;-76
2022/11/19 02:20:52;;;;;;;64.05;25.42;;;;;;;;;;1031028;28;20018;-76
2022/11/19 02:21:22;;;;;;;50.90;21.08;;;;;;;;;;1029825;28;20026;-76
2022/11/19 02:21:59;;;;;;;63.47;25.25;;;;;;;;;;1031004;28;20018;-76
2022/11/19 02:22:29;;;;;;;53.33;24.75;;;;;;;;;;1030040;28;20026;-74
2022/11/19 02:23:19;;;;;;;62.55;25.88;;;;;;;;;;1030619;28;20041;-74
2022/11/19 02:24:08;;;;;;;64.28;26.38;;;;;;;;;;1029453;28;20037;-76
2022/11/19 02:24:54;;;;;;;64.13;24.83;;;;;;;;;;1027395;28;20027;-76
2022/11/19 02:25:40;;;;;;;66.43;27.25;;;;;;;;;;1029299;28;20101;-76
2022/11/19 02:26:16;;;;;;;65.38;27.63;;;;;;;;;;1030743;28;20093;-76
2022/11/19 02:27:02;;;;;;;66.53;28.42;;;;;;;;;;1028799;28;20022;-75
2022/11/19 02:27:50;;;;;;;76.85;28.73;;;;;;;;;;1031814;28;20033;-76
2022/11/19 02:28:39;;;;;;;59.40;25.70;;;;;;;;;;1030796;28;20306;-75
2022/11/19 02:29:31;;;;;;;67.22;26.98;;;;;;;;;;1030780;28;20092;-75
2022/11/19 02:30:03;;;;;;;77.28;29.77;;;;;;;;;;1027761;28;20026;-75
2022/11/19 02:30:40;;;;;;;67.55;30.08;;;;;;;;;;1029307;28;20509;-75
2022/11/19 02:31:17;;;;;;;61.47;28.25;;;;;;;;;;1030233;28;20030;-75
2022/11/19 02:31:56;;;;;;;59.83;28.45;;;;;;;;;;1026549;28;20450;-75
2022/11/19 02:32:33;;;;;;;66.10;29.35;;;;;;;;;;1027037;28;20088;-75
2022/11/19 02:33:09;;;;;;;65.28;26.20;;;;;;;;;;1029038;28;20033;-75
2022/11/19 02:33:41;;;;;;;62.50;29.38;;;;;;;;;;1029382;28;20498;-76
2022/11/19 02:34:21;;;;;;;61.00;27.23;;;;;;;;;;1027464;28;20035;-76
2022/11/19 02:34:54;;;;;;;61.50;26.42;;;;;;;;;;1027213;28;20022;-75
2022/11/19 02:35:41;;;;;;;65.00;27.70;;;;;;;;;;1026309;28;20029;-75
2022/11/19 02:36:30;;;;;;;59.28;30.40;;;;;;;;;;1031148;28;20598;-76
2022/11/19 02:37:06;;;;;;;63.20;26.02;;;;;;;;;;1026288;28;20027;-76
2022/11/19 02:37:55;;;;;;;55.95;26.35;;;;;;;;;;1026645;28;20034;-76
2022/11/19 02:38:30;;;;;;;62.40;26.45;;;;;;;;;;1029294;28;20026;-76
2022/11/19 02:39:01;;;;;;;55.72;26.85;;;;;;;;;;1030970;28;20026;-75
2022/11/19 02:39:38;;;;;;;56.42;29.35;;;;;;;;;;1031686;28;20395;-75
2022/11/19 02:40:13;;;;;;;64.35;29.13;;;;;;;;;;1029938;28;20046;-75
2022/11/19 02:41:32;;;;;;;66.90;25.92;;;;;;;;;;1031295;28;20471;-76
2022/11/19 02:42:07;;;;;;;60.83;28.83;;;;;;;;;;1031684;28;20026;-76
2022/11/19 02:42:41;;;;;;;54.58;25.50;;;;;;;;;;1031564;28;20033;-76
2022/11/19 02:43:18;;;;;;;61.05;28.45;;;;;;;;;;1029447;28;20022;-76
2022/11/19 02:43:50;;;;;;;55.28;26.70;;;;;;;;;;1027146;28;20587;-75
2022/11/19 02:45:22;;;;;;;61.72;28.75;;;;;;;;;;1028948;28;20054;-75
2022/11/19 02:46:12;;;;;;;63.22;28.13;;;;;;;;;;1029827;28;20022;-75
2022/11/19 02:46:44;;;;;;;56.45;25.85;;;;;;;;;;1030946;28;20034;-75
2022/11/19 02:47:22;;;;;;;59.17;27.20;;;;;;;;;;1030203;28;20137;-75
2022/11/19 02:47:55;;;;;;;57.80;26.73;;;;;;;;;;1030337;28;20026;-76
2022/11/19 02:48:26;;;;;;;64.80;29.92;;;;;;;;;;1029592;28;20027;-76
2022/11/19 02:48:57;;;;;;;67.75;31.80;;;;;;;;;;1031034;28;21346;-75
2022/11/19 02:49:30;;;;;;;71.22;30.55;;;;;;;;;;1028948;28;20527;-75
2022/11/19 02:50:07;;;;;;;54.00;28.60;;;;;;;;;;1028173;28;20502;-75
2022/11/19 02:51:13;;;;;;;68.03;29.00;;;;;;;;;;1028953;28;20085;-75
2022/11/19 02:51:44;;;;;;;72.25;28.23;;;;;;;;;;1012868;29;20070;-74
2022/11/19 02:52:15;;;;;;;53.17;26.33;;;;;;;;;;1013785;29;20039;-75
2022/11/19 02:52:47;;;;;;;69.00;29.45;;;;;;;;;;1016581;29;20035;-75
2022/11/19 02:53:18;;;;;;;60.03;29.42;;;;;;;;;;1015956;29;20457;-75
2022/11/19 02:53:49;;;;;;;55.88;25.67;;;;;;;;;;1014087;29;20020;-75
2022/11/19 02:54:20;;;;;;;63.05;27.98;;;;;;;;;;1018099;28;20027;-75
2022/11/19 02:54:52;;;;;;;67.00;29.65;;;;;;;;;;1028046;28;20506;-75
2022/11/19 02:55:23;;;;;;;73.45;30.25;;;;;;;;;;1028148;28;20022;-75
2022/11/19 02:56:11;;;;;;;61.47;27.02;;;;;;;;;;1030571;28;20113;-75
2022/11/19 02:57:01;;;;;;;65.55;26.33;;;;;;;;;;1030756;28;20057;-76
2022/11/19 02:57:33;;;;;;;62.88;25.67;;;;;;;;;;1030671;28;20023;-75
2022/11/19 03:04:28;;;;;;;61.65;23.52;;;;;;;;;;1030852;28;20117;-75
2022/11/19 03:04:31;;;;;;;49.75;24.85;;;;;;;;;;1031644;28;20023;-74
2022/11/19 03:05:06;;;;;;;58.45;26.40;;;;;;;;;;1030722;28;20181;-76
2022/11/19 03:05:38;;;;;;;50.58;26.17;;;;;;;;;;1031043;28;20557;-76
2022/11/19 03:06:15;;;;;;;61.20;26.20;;;;;;;;;;1031341;28;20474;-75
2022/11/19 03:06:47;;;;;;;54.63;26.15;;;;;;;;;;1030012;28;20031;-74
2022/11/19 03:07:18;;;;;;;54.53;26.75;;;;;;;;;;1030572;28;20036;-74
2022/11/19 03:07:49;;;;;;;58.85;27.73;;;;;;;;;;1030015;28;20446;-75
2022/11/19 03:08:20;;;;;;;53.95;29.52;;;;;;;;;;1031269;28;20445;-75
2022/11/19 03:08:51;;;;;;;58.65;28.38;;;;;;;;;;1028255;28;20065;-75
2022/11/19 03:09:22;;;;;;;60.30;27.98;;;;;;;;;;1029742;28;20564;-75
2022/11/19 03:09:57;;;;;;;58.85;24.75;;;;;;;;;;1029764;28;20037;-75
2022/11/19 03:10:35;;;;;;;64.45;26.48;;;;;;;;;;1031459;28;20069;-74
2022/11/19 03:11:15;;;;;;;59.40;26.70;;;;;;;;;;1032089;28;20041;-75
2022/11/19 03:11:49;;;;;;;54.55;25.80;;;;;;;;;;1031317;28;20372;-76
2022/11/19 03:12:29;;;;;;;58.72;28.17;;;;;;;;;;1031963;28;20105;-75
2022/11/19 03:16:40;;;;;;;57.63;28.90;;;;;;;;;;1031899;28;20023;-76
2022/11/19 03:16:54;;;;;;;47.25;21.10;;;;;;;;;;1032204;28;20026;-75
2022/11/19 03:17:41;;;;;;;62.30;23.58;;;;;;;;;;1032542;28;20034;-75
2022/11/19 03:18:21;;;;;;;52.40;20.77;;;;;;;;;;1032094;28;20035;-76
2022/11/19 03:19:15;;;;;;;55.10;22.42;;;;;;;;;;1031965;28;20029;-76
2022/11/19 03:19:49;;;;;;;53.17;22.60;;;;;;;;;;1019101;28;20032;-75
2022/11/19 03:20:24;;;;;;;54.85;24.73;;;;;;;;;;1028166;28;20011;-75
2022/11/19 03:21:00;;;;;;;46.83;24.95;;;;;;;;;;1023273;29;20023;-74
2022/11/19 03:21:37;;;;;;;67.10;26.67;;;;;;;;;;1021287;28;20078;-76
2022/11/19 03:22:12;;;;;;;52.97;25.67;;;;;;;;;;1024260;28;20034;-77
2022/11/19 03:22:48;;;;;;;52.90;26.05;;;;;;;;;;1024664;28;20053;-77
2022/11/19 03:23:31;;;;;;;55.00;26.23;;;;;;;;;;1028057;28;20479;-78
2022/11/19 03:24:11;;;;;;;48.90;23.48;;;;;;;;;;1027481;28;20022;-77
2022/11/19 03:24:46;;;;;;;45.65;22.98;;;;;;;;;;1026384;28;20566;-75
2022/11/19 03:25:28;;;;;;;66.55;25.30;;;;;;;;;;1028144;28;20518;-76
2022/11/19 03:26:14;;;;;;;53.83;25.88;;;;;;;;;;1027150;28;20022;-75
2022/11/19 03:26:57;;;;;;;66.25;27.80;;;;;;;;;;1032045;28;20065;-75
2022/11/19 03:27:34;;;;;;;56.45;26.75;;;;;;;;;;1031507;28;20034;-76
2022/11/19 03:28:09;;;;;;;65.05;24.48;;;;;;;;;;1032742;28;20057;-76
2022/11/19 03:28:41;;;;;;;58.42;26.77;;;;;;;;;;1032928;28;20042;-76
2022/11/19 03:29:13;;;;;;;51.05;24.77;;;;;;;;;;1033624;28;20133;-76
2022/11/19 03:29:46;;;;;;;58.40;27.15;;;;;;;;;;1031132;28;20030;-75
2022/11/19 03:30:17;;;;;;;69.65;29.63;;;;;;;;;;1032825;28;20132;-76
2022/11/19 03:30:49;;;;;;;60.75;25.98;;;;;;;;;;1030138;28;20121;-75
2022/11/19 03:31:22;;;;;;;51.28;27.95;;;;;;;;;;1029167;28;20491;-77